TimeCDT,TemperatureF,Dew PointF,Humidity,Sea Level PressureIn,VisibilityMPH,Wind Direction,Wind SpeedMPH,Gust SpeedMPH,PrecipitationIn,Events,Conditions,WindDirDegrees,DateUTC
12:44 AM,71.6,66.2,83,29.97,9.0,North,10.4,-,N/A,,Overcast,350,2013-10-17 05:44:00
12:53 AM,71.1,66.0,84,29.97,8.0,NNW,12.7,-,N/A,,Overcast,340,2013-10-17 05:53:00
1:30 AM,69.8,66.2,88,29.96,8.0,NNW,8.1,-,N/A,,Overcast,340,2013-10-17 06:30:00
1:53 AM,70.0,66.0,87,29.97,8.0,NNW,9.2,-,N/A,,Overcast,340,2013-10-17 06:53:00
2:53 AM,68.0,64.9,90,29.97,10.0,North,10.4,-,N/A,,Overcast,350,2013-10-17 07:53:00
3:53 AM,68.0,64.9,90,29.97,10.0,North,6.9,-,N/A,,Overcast,360,2013-10-17 08:53:00
4:53 AM,66.9,64.0,90,29.97,5.0,North,8.1,-,N/A,,Overcast,350,2013-10-17 09:53:00
5:53 AM,66.0,64.0,93,29.99,8.0,NNW,8.1,-,0.00,,Overcast,340,2013-10-17 10:53:00
6:53 AM,64.9,63.0,93,30.00,10.0,NNW,9.2,-,0.00,,Overcast,340,2013-10-17 11:53:00
7:53 AM,64.9,63.0,93,30.01,10.0,NNW,6.9,-,N/A,,Overcast,330,2013-10-17 12:53:00
8:53 AM,64.9,63.0,93,30.03,10.0,North,11.5,-,N/A,,Overcast,350,2013-10-17 13:53:00
9:53 AM,66.0,63.0,90,30.05,5.0,North,8.1,-,N/A,,Overcast,350,2013-10-17 14:53:00
10:53 AM,66.9,63.0,87,30.06,7.0,North,8.1,-,N/A,,Overcast,350,2013-10-17 15:53:00
11:53 AM,66.9,62.1,84,30.06,10.0,North,8.1,-,N/A,,Overcast,360,2013-10-17 16:53:00
12:53 PM,66.9,62.1,84,30.04,10.0,NNW,8.1,-,N/A,,Overcast,340,2013-10-17 17:53:00
1:53 PM,66.9,62.1,84,30.02,8.0,North,8.1,-,0.00,,Overcast,350,2013-10-17 18:53:00
2:16 PM,66.2,60.8,83,30.01,7.0,North,6.9,-,N/A,,Overcast,350,2013-10-17 19:16:00
2:53 PM,68.0,61.0,78,30.00,9.0,NNW,9.2,-,N/A,,Overcast,340,2013-10-17 19:53:00
3:53 PM,72.0,61.0,68,29.98,10.0,NNW,8.1,-,N/A,,Overcast,330,2013-10-17 20:53:00
4:27 PM,71.6,60.8,69,29.98,10.0,NE,5.8,-,N/A,,Partly Cloudy,40,2013-10-17 21:27:00
4:53 PM,73.0,61.0,66,29.98,10.0,North,5.8,-,N/A,,Scattered Clouds,10,2013-10-17 21:53:00
5:53 PM,73.0,62.1,68,29.97,10.0,North,4.6,-,N/A,,Scattered Clouds,10,2013-10-17 22:53:00
6:53 PM,68.0,61.0,78,29.97,10.0,North,4.6,-,N/A,,Clear,10,2013-10-17 23:53:00
7:53 PM,66.0,59.0,78,29.99,10.0,North,5.8,-,N/A,,Clear,360,2013-10-18 00:53:00
8:53 PM,64.9,57.9,78,30.00,10.0,North,5.8,-,N/A,,Clear,10,2013-10-18 01:53:00
9:53 PM,63.0,57.0,81,30.01,10.0,NNE,3.5,-,N/A,,Clear,20,2013-10-18 02:53:00
10:53 PM,60.1,55.9,86,30.01,10.0,NE,4.6,-,N/A,,Clear,40,2013-10-18 03:53:00
11:53 PM,62.1,55.9,80,30.00,10.0,NE,4.6,-,N/A,,Clear,40,2013-10-18 04:53:00